sensor_id;sensor_type;location;lat;lon;timestamp;P1;durP1;ratioP1;P2;durP2;ratioP2
70150;SDS011;57517;43.562;19.540;2022-09-21T00:00:51;10.93;;;8.73;;
70150;SDS011;57517;43.562;19.540;2022-09-21T00:03:17;10.52;;;8.25;;
70150;SDS011;57517;43.562;19.540;2022-09-21T00:05:43;10.80;;;7.93;;
70150;SDS011;57517;43.562;19.540;2022-09-21T00:08:09;13.48;;;8.57;;
70150;SDS011;57517;43.562;19.540;2022-09-21T00:10:37;12.25;;;8.40;;
70150;SDS011;57517;43.562;19.540;2022-09-21T00:13:03;13.02;;;9.90;;
70150;SDS011;57517;43.562;19.540;2022-09-21T00:15:30;12.57;;;9.57;;
70150;SDS011;57517;43.562;19.540;2022-09-21T00:17:57;12.13;;;9.05;;
70150;SDS011;57517;43.562;19.540;2022-09-21T00:20:24;11.00;;;8.95;;
70150;SDS011;57517;43.562;19.540;2022-09-21T00:22:50;10.23;;;8.38;;
70150;SDS011;57517;43.562;19.540;2022-09-21T00:25:17;10.18;;;7.80;;
70150;SDS011;57517;43.562;19.540;2022-09-21T00:27:43;9.00;;;7.57;;
70150;SDS011;57517;43.562;19.540;2022-09-21T00:30:12;8.90;;;6.55;;
70150;SDS011;57517;43.562;19.540;2022-09-21T00:32:37;11.25;;;7.30;;
70150;SDS011;57517;43.562;19.540;2022-09-21T00:35:04;10.25;;;8.15;;
70150;SDS011;57517;43.562;19.540;2022-09-21T00:37:33;11.13;;;8.50;;
70150;SDS011;57517;43.562;19.540;2022-09-21T00:39:59;9.48;;;8.02;;
70150;SDS011;57517;43.562;19.540;2022-09-21T00:42:27;10.20;;;8.48;;
70150;SDS011;57517;43.562;19.540;2022-09-21T00:44:54;11.90;;;9.25;;
70150;SDS011;57517;43.562;19.540;2022-09-21T00:47:22;11.80;;;8.32;;
70150;SDS011;57517;43.562;19.540;2022-09-21T00:49:50;12.98;;;9.55;;
70150;SDS011;57517;43.562;19.540;2022-09-21T00:52:23;10.85;;;8.65;;
70150;SDS011;57517;43.562;19.540;2022-09-21T00:54:52;12.07;;;9.50;;
70150;SDS011;57517;43.562;19.540;2022-09-21T00:57:22;12.02;;;8.23;;
70150;SDS011;57517;43.562;19.540;2022-09-21T00:59:50;13.30;;;9.30;;
70150;SDS011;57517;43.562;19.540;2022-09-21T01:02:20;12.52;;;8.77;;
70150;SDS011;57517;43.562;19.540;2022-09-21T01:04:46;10.90;;;7.45;;
70150;SDS011;57517;43.562;19.540;2022-09-21T01:07:16;11.05;;;8.30;;
70150;SDS011;57517;43.562;19.540;2022-09-21T01:09:46;10.35;;;8.65;;
70150;SDS011;57517;43.562;19.540;2022-09-21T01:29:19;11.20;;;8.93;;
70150;SDS011;57517;43.562;19.540;2022-09-21T01:34:45;12.07;;;9.40;;
70150;SDS011;57517;43.562;19.540;2022-09-21T01:37:15;11.15;;;8.40;;
70150;SDS011;57517;43.562;19.540;2022-09-21T01:39:46;11.05;;;8.20;;
70150;SDS011;57517;43.562;19.540;2022-09-21T01:42:16;11.15;;;8.43;;
70150;SDS011;57517;43.562;19.540;2022-09-21T01:44:45;10.35;;;9.27;;
70150;SDS011;57517;43.562;19.540;2022-09-21T01:47:12;14.27;;;9.52;;
70150;SDS011;57517;43.562;19.540;2022-09-21T01:49:42;12.48;;;9.93;;
70150;SDS011;57517;43.562;19.540;2022-09-21T01:54:48;12.57;;;8.15;;
70150;SDS011;57517;43.562;19.540;2022-09-21T01:59:54;9.13;;;7.25;;
70150;SDS011;57517;43.562;19.540;2022-09-21T02:02:28;11.38;;;8.70;;
70150;SDS011;57517;43.562;19.540;2022-09-21T02:05:02;11.13;;;8.98;;
70150;SDS011;57517;43.562;19.540;2022-09-21T02:07:29;12.38;;;9.82;;
70150;SDS011;57517;43.562;19.540;2022-09-21T02:09:56;11.73;;;9.30;;
70150;SDS011;57517;43.562;19.540;2022-09-21T02:12:23;13.52;;;10.23;;
70150;SDS011;57517;43.562;19.540;2022-09-21T02:14:49;15.07;;;10.73;;
70150;SDS011;57517;43.562;19.540;2022-09-21T02:31:12;11.02;;;9.65;;
70150;SDS011;57517;43.562;19.540;2022-09-21T02:33:46;10.35;;;8.07;;
70150;SDS011;57517;43.562;19.540;2022-09-21T02:36:20;11.05;;;8.35;;
70150;SDS011;57517;43.562;19.540;2022-09-21T02:38:55;9.38;;;7.35;;
70150;SDS011;57517;43.562;19.540;2022-09-21T02:44:29;9.10;;;7.65;;
70150;SDS011;57517;43.562;19.540;2022-09-21T02:50:07;11.07;;;8.73;;
70150;SDS011;57517;43.562;19.540;2022-09-21T02:52:37;10.30;;;8.20;;
70150;SDS011;57517;43.562;19.540;2022-09-21T02:55:05;11.45;;;8.65;;
70150;SDS011;57517;43.562;19.540;2022-09-21T02:57:33;13.25;;;9.63;;
70150;SDS011;57517;43.562;19.540;2022-09-21T03:00:00;11.95;;;9.75;;
70150;SDS011;57517;43.562;19.540;2022-09-21T03:02:36;13.43;;;10.48;;
70150;SDS011;57517;43.562;19.540;2022-09-21T03:05:06;14.18;;;10.15;;
70150;SDS011;57517;43.562;19.540;2022-09-21T03:07:34;12.07;;;10.00;;
70150;SDS011;57517;43.562;19.540;2022-09-21T03:10:00;14.02;;;10.70;;
70150;SDS011;57517;43.562;19.540;2022-09-21T03:12:25;12.65;;;10.75;;
70150;SDS011;57517;43.562;19.540;2022-09-21T03:14:51;12.35;;;9.93;;
70150;SDS011;57517;43.562;19.540;2022-09-21T03:17:18;11.18;;;9.55;;
70150;SDS011;57517;43.562;19.540;2022-09-21T03:19:43;12.90;;;10.45;;
70150;SDS011;57517;43.562;19.540;2022-09-21T03:22:09;11.63;;;9.23;;
70150;SDS011;57517;43.562;19.540;2022-09-21T03:24:35;11.25;;;9.00;;
70150;SDS011;57517;43.562;19.540;2022-09-21T03:27:10;12.23;;;8.25;;
70150;SDS011;57517;43.562;19.540;2022-09-21T03:29:36;14.23;;;9.48;;
70150;SDS011;57517;43.562;19.540;2022-09-21T03:32:02;11.75;;;9.13;;
70150;SDS011;57517;43.562;19.540;2022-09-21T03:34:27;12.77;;;9.45;;
70150;SDS011;57517;43.562;19.540;2022-09-21T03:36:58;12.95;;;9.85;;
70150;SDS011;57517;43.562;19.540;2022-09-21T03:39:25;12.32;;;9.43;;
70150;SDS011;57517;43.562;19.540;2022-09-21T03:41:51;12.18;;;9.88;;
70150;SDS011;57517;43.562;19.540;2022-09-21T03:44:19;14.23;;;9.82;;
70150;SDS011;57517;43.562;19.540;2022-09-21T03:46:45;13.80;;;9.70;;
70150;SDS011;57517;43.562;19.540;2022-09-21T03:49:11;12.27;;;9.48;;
70150;SDS011;57517;43.562;19.540;2022-09-21T03:51:37;11.95;;;9.57;;
70150;SDS011;57517;43.562;19.540;2022-09-21T03:54:03;12.50;;;9.73;;
70150;SDS011;57517;43.562;19.540;2022-09-21T03:56:29;11.75;;;8.52;;
70150;SDS011;57517;43.562;19.540;2022-09-21T03:58:55;12.25;;;9.45;;
70150;SDS011;57517;43.562;19.540;2022-09-21T04:01:21;11.75;;;9.25;;
70150;SDS011;57517;43.562;19.540;2022-09-21T04:03:47;13.85;;;8.90;;
70150;SDS011;57517;43.562;19.540;2022-09-21T04:06:13;11.98;;;9.05;;
70150;SDS011;57517;43.562;19.540;2022-09-21T04:08:39;12.25;;;9.85;;
70150;SDS011;57517;43.562;19.540;2022-09-21T04:11:11;11.73;;;9.73;;
70150;SDS011;57517;43.562;19.540;2022-09-21T04:16:07;18.50;;;15.40;;
70150;SDS011;57517;43.562;19.540;2022-09-21T04:18:36;17.95;;;13.25;;
70150;SDS011;57517;43.562;19.540;2022-09-21T04:21:03;12.68;;;10.02;;
70150;SDS011;57517;43.562;19.540;2022-09-21T04:23:30;10.27;;;9.10;;
70150;SDS011;57517;43.562;19.540;2022-09-21T04:25:56;12.88;;;9.20;;
70150;SDS011;57517;43.562;19.540;2022-09-21T04:28:22;12.23;;;9.32;;
70150;SDS011;57517;43.562;19.540;2022-09-21T04:30:51;12.23;;;10.30;;
70150;SDS011;57517;43.562;19.540;2022-09-21T04:33:18;15.38;;;10.13;;
70150;SDS011;57517;43.562;19.540;2022-09-21T04:35:45;12.55;;;9.20;;
70150;SDS011;57517;43.562;19.540;2022-09-21T04:38:12;14.73;;;10.23;;
70150;SDS011;57517;43.562;19.540;2022-09-21T04:40:38;11.75;;;9.63;;
70150;SDS011;57517;43.562;19.540;2022-09-21T04:43:03;12.32;;;9.63;;
70150;SDS011;57517;43.562;19.540;2022-09-21T04:45:29;16.48;;;11.63;;
70150;SDS011;57517;43.562;19.540;2022-09-21T04:47:56;14.93;;;10.65;;
70150;SDS011;57517;43.562;19.540;2022-09-21T04:50:22;15.35;;;11.05;;
70150;SDS011;57517;43.562;19.540;2022-09-21T04:52:48;16.70;;;10.63;;
70150;SDS011;57517;43.562;19.540;2022-09-21T04:55:13;12.50;;;9.88;;
70150;SDS011;57517;43.562;19.540;2022-09-21T04:57:39;11.23;;;9.98;;
70150;SDS011;57517;43.562;19.540;2022-09-21T05:00:05;14.27;;;9.55;;
70150;SDS011;57517;43.562;19.540;2022-09-21T05:02:31;14.07;;;10.13;;
70150;SDS011;57517;43.562;19.540;2022-09-21T05:04:57;12.30;;;9.02;;
70150;SDS011;57517;43.562;19.540;2022-09-21T05:07:23;12.30;;;8.85;;
70150;SDS011;57517;43.562;19.540;2022-09-21T05:09:49;12.07;;;8.02;;
70150;SDS011;57517;43.562;19.540;2022-09-21T05:12:26;11.73;;;8.70;;
70150;SDS011;57517;43.562;19.540;2022-09-21T05:14:52;18.60;;;8.23;;
70150;SDS011;57517;43.562;19.540;2022-09-21T05:17:20;10.90;;;8.25;;
70150;SDS011;57517;43.562;19.540;2022-09-21T05:19:47;9.38;;;7.40;;
70150;SDS011;57517;43.562;19.540;2022-09-21T05:22:14;9.32;;;6.93;;
70150;SDS011;57517;43.562;19.540;2022-09-21T05:24:40;12.52;;;8.20;;
70150;SDS011;57517;43.562;19.540;2022-09-21T05:27:05;11.63;;;8.60;;
70150;SDS011;57517;43.562;19.540;2022-09-21T05:29:31;13.73;;;10.25;;
70150;SDS011;57517;43.562;19.540;2022-09-21T05:32:02;16.95;;;9.90;;
70150;SDS011;57517;43.562;19.540;2022-09-21T05:37:54;10.95;;;8.77;;
70150;SDS011;57517;43.562;19.540;2022-09-21T05:40:25;11.70;;;9.88;;
70150;SDS011;57517;43.562;19.540;2022-09-21T05:42:51;12.90;;;9.50;;
70150;SDS011;57517;43.562;19.540;2022-09-21T05:45:17;14.65;;;10.65;;
70150;SDS011;57517;43.562;19.540;2022-09-21T05:55:54;12.57;;;9.73;;
70150;SDS011;57517;43.562;19.540;2022-09-21T06:01:36;15.07;;;11.32;;
70150;SDS011;57517;43.562;19.540;2022-09-21T06:04:17;13.73;;;10.88;;
70150;SDS011;57517;43.562;19.540;2022-09-21T06:06:43;11.60;;;9.68;;
70150;SDS011;57517;43.562;19.540;2022-09-21T06:09:09;13.38;;;9.75;;
70150;SDS011;57517;43.562;19.540;2022-09-21T06:11:34;12.13;;;10.20;;
70150;SDS011;57517;43.562;19.540;2022-09-21T06:14:01;16.20;;;10.43;;
70150;SDS011;57517;43.562;19.540;2022-09-21T06:16:35;12.48;;;9.48;;
70150;SDS011;57517;43.562;19.540;2022-09-21T06:19:02;12.60;;;10.85;;
70150;SDS011;57517;43.562;19.540;2022-09-21T06:21:27;12.02;;;9.98;;
70150;SDS011;57517;43.562;19.540;2022-09-21T06:23:53;13.95;;;11.20;;
70150;SDS011;57517;43.562;19.540;2022-09-21T06:26:19;15.13;;;12.40;;
70150;SDS011;57517;43.562;19.540;2022-09-21T06:28:44;15.65;;;11.68;;
70150;SDS011;57517;43.562;19.540;2022-09-21T06:31:10;11.38;;;9.27;;
70150;SDS011;57517;43.562;19.540;2022-09-21T06:33:36;11.05;;;9.00;;
70150;SDS011;57517;43.562;19.540;2022-09-21T06:36:02;10.48;;;8.93;;
70150;SDS011;57517;43.562;19.540;2022-09-21T06:38:28;9.85;;;8.75;;
70150;SDS011;57517;43.562;19.540;2022-09-21T06:40:54;10.65;;;9.55;;
70150;SDS011;57517;43.562;19.540;2022-09-21T06:43:20;9.63;;;7.38;;
70150;SDS011;57517;43.562;19.540;2022-09-21T06:45:52;9.75;;;7.60;;
70150;SDS011;57517;43.562;19.540;2022-09-21T06:48:20;9.68;;;8.18;;
70150;SDS011;57517;43.562;19.540;2022-09-21T06:50:46;9.85;;;8.43;;
70150;SDS011;57517;43.562;19.540;2022-09-21T06:53:12;9.63;;;8.30;;
70150;SDS011;57517;43.562;19.540;2022-09-21T06:55:39;8.60;;;7.13;;
70150;SDS011;57517;43.562;19.540;2022-09-21T06:58:05;11.07;;;9.18;;
70150;SDS011;57517;43.562;19.540;2022-09-21T07:00:31;35.08;;;24.27;;
70150;SDS011;57517;43.562;19.540;2022-09-21T07:02:57;12.80;;;9.70;;
70150;SDS011;57517;43.562;19.540;2022-09-21T07:05:23;37.08;;;28.73;;
70150;SDS011;57517;43.562;19.540;2022-09-21T07:07:49;19.73;;;13.40;;
70150;SDS011;57517;43.562;19.540;2022-09-21T07:10:15;10.63;;;8.93;;
70150;SDS011;57517;43.562;19.540;2022-09-21T07:12:42;11.80;;;8.50;;
70150;SDS011;57517;43.562;19.540;2022-09-21T07:15:08;10.85;;;7.57;;
70150;SDS011;57517;43.562;19.540;2022-09-21T07:17:35;9.65;;;7.47;;
70150;SDS011;57517;43.562;19.540;2022-09-21T07:20:02;10.48;;;7.97;;
70150;SDS011;57517;43.562;19.540;2022-09-21T07:22:29;8.52;;;7.25;;
70150;SDS011;57517;43.562;19.540;2022-09-21T07:24:57;12.02;;;10.70;;
70150;SDS011;57517;43.562;19.540;2022-09-21T07:27:23;10.65;;;9.55;;
70150;SDS011;57517;43.562;19.540;2022-09-21T07:29:50;10.43;;;8.90;;
70150;SDS011;57517;43.562;19.540;2022-09-21T07:32:16;9.68;;;7.82;;
70150;SDS011;57517;43.562;19.540;2022-09-21T07:34:42;9.27;;;7.32;;
70150;SDS011;57517;43.562;19.540;2022-09-21T07:37:09;7.97;;;7.15;;
70150;SDS011;57517;43.562;19.540;2022-09-21T07:39:35;9.02;;;7.38;;
70150;SDS011;57517;43.562;19.540;2022-09-21T07:42:03;10.38;;;6.97;;
70150;SDS011;57517;43.562;19.540;2022-09-21T07:44:29;12.23;;;7.15;;
70150;SDS011;57517;43.562;19.540;2022-09-21T07:46:55;19.75;;;16.38;;
70150;SDS011;57517;43.562;19.540;2022-09-21T07:49:21;12.50;;;11.20;;
70150;SDS011;57517;43.562;19.540;2022-09-21T07:51:46;9.55;;;7.05;;
70150;SDS011;57517;43.562;19.540;2022-09-21T07:54:12;6.60;;;5.75;;
70150;SDS011;57517;43.562;19.540;2022-09-21T07:56:40;7.22;;;6.47;;
70150;SDS011;57517;43.562;19.540;2022-09-21T07:59:07;6.38;;;5.63;;
70150;SDS011;57517;43.562;19.540;2022-09-21T08:01:39;6.10;;;5.05;;
70150;SDS011;57517;43.562;19.540;2022-09-21T08:04:06;8.90;;;7.15;;
70150;SDS011;57517;43.562;19.540;2022-09-21T08:06:34;6.70;;;5.60;;
70150;SDS011;57517;43.562;19.540;2022-09-21T08:09:04;7.95;;;4.50;;
70150;SDS011;57517;43.562;19.540;2022-09-21T08:11:30;5.72;;;4.38;;
70150;SDS011;57517;43.562;19.540;2022-09-21T08:14:01;5.78;;;4.65;;
70150;SDS011;57517;43.562;19.540;2022-09-21T08:16:28;5.88;;;4.28;;
70150;SDS011;57517;43.562;19.540;2022-09-21T08:18:55;6.95;;;4.47;;
70150;SDS011;57517;43.562;19.540;2022-09-21T08:21:21;5.35;;;3.97;;
70150;SDS011;57517;43.562;19.540;2022-09-21T08:23:47;5.75;;;5.25;;
70150;SDS011;57517;43.562;19.540;2022-09-21T08:26:14;6.55;;;5.70;;
70150;SDS011;57517;43.562;19.540;2022-09-21T08:28:45;4.95;;;4.45;;
70150;SDS011;57517;43.562;19.540;2022-09-21T08:31:16;6.53;;;5.03;;
70150;SDS011;57517;43.562;19.540;2022-09-21T08:33:44;5.57;;;5.10;;
70150;SDS011;57517;43.562;19.540;2022-09-21T08:36:11;6.60;;;5.95;;
70150;SDS011;57517;43.562;19.540;2022-09-21T08:38:37;6.68;;;5.97;;
70150;SDS011;57517;43.562;19.540;2022-09-21T08:41:16;5.43;;;4.50;;
70150;SDS011;57517;43.562;19.540;2022-09-21T08:44:31;5.32;;;4.03;;
70150;SDS011;57517;43.562;19.540;2022-09-21T08:46:37;6.35;;;4.32;;
70150;SDS011;57517;43.562;19.540;2022-09-21T08:49:09;5.47;;;3.60;;
70150;SDS011;57517;43.562;19.540;2022-09-21T08:51:36;6.63;;;3.70;;
70150;SDS011;57517;43.562;19.540;2022-09-21T08:54:23;7.15;;;5.50;;
70150;SDS011;57517;43.562;19.540;2022-09-21T08:57:13;6.47;;;4.85;;
70150;SDS011;57517;43.562;19.540;2022-09-21T08:59:42;7.47;;;5.50;;
70150;SDS011;57517;43.562;19.540;2022-09-21T09:05:24;6.85;;;6.15;;
70150;SDS011;57517;43.562;19.540;2022-09-21T09:16:35;5.50;;;4.03;;
70150;SDS011;57517;43.562;19.540;2022-09-21T09:21:37;5.18;;;2.75;;
70150;SDS011;57517;43.562;19.540;2022-09-21T09:24:08;3.72;;;2.80;;
70150;SDS011;57517;43.562;19.540;2022-09-21T09:26:36;5.43;;;3.42;;
70150;SDS011;57517;43.562;19.540;2022-09-21T09:31:48;5.53;;;4.68;;
70150;SDS011;57517;43.562;19.540;2022-09-21T09:34:31;4.93;;;3.25;;
70150;SDS011;57517;43.562;19.540;2022-09-21T09:37:06;6.82;;;4.63;;
70150;SDS011;57517;43.562;19.540;2022-09-21T09:39:37;5.53;;;4.32;;
70150;SDS011;57517;43.562;19.540;2022-09-21T09:47:51;3.05;;;2.10;;
70150;SDS011;57517;43.562;19.540;2022-09-21T09:50:27;5.28;;;3.47;;
70150;SDS011;57517;43.562;19.540;2022-09-21T09:53:36;4.63;;;3.00;;
70150;SDS011;57517;43.562;19.540;2022-09-21T09:55:47;8.07;;;5.10;;
70150;SDS011;57517;43.562;19.540;2022-09-21T09:58:16;6.93;;;3.80;;
70150;SDS011;57517;43.562;19.540;2022-09-21T10:00:50;8.98;;;4.32;;
70150;SDS011;57517;43.562;19.540;2022-09-21T10:03:21;6.68;;;4.47;;
70150;SDS011;57517;43.562;19.540;2022-09-21T10:05:48;3.72;;;2.35;;
70150;SDS011;57517;43.562;19.540;2022-09-21T10:09:00;6.68;;;3.05;;
70150;SDS011;57517;43.562;19.540;2022-09-21T10:11:01;5.35;;;3.50;;
70150;SDS011;57517;43.562;19.540;2022-09-21T10:13:31;6.95;;;2.92;;
70150;SDS011;57517;43.562;19.540;2022-09-21T10:19:10;5.55;;;3.53;;
70150;SDS011;57517;43.562;19.540;2022-09-21T10:21:26;6.38;;;3.17;;
70150;SDS011;57517;43.562;19.540;2022-09-21T10:23:58;7.10;;;3.00;;
70150;SDS011;57517;43.562;19.540;2022-09-21T10:26:30;4.68;;;3.00;;
70150;SDS011;57517;43.562;19.540;2022-09-21T10:29:18;6.00;;;3.50;;
70150;SDS011;57517;43.562;19.540;2022-09-21T10:32:02;3.63;;;2.20;;
70150;SDS011;57517;43.562;19.540;2022-09-21T10:34:31;4.63;;;2.40;;
70150;SDS011;57517;43.562;19.540;2022-09-21T10:36:59;5.53;;;2.88;;
70150;SDS011;57517;43.562;19.540;2022-09-21T10:39:33;4.82;;;2.65;;
70150;SDS011;57517;43.562;19.540;2022-09-21T10:44:40;5.60;;;4.35;;
70150;SDS011;57517;43.562;19.540;2022-09-21T10:47:18;5.93;;;4.00;;
70150;SDS011;57517;43.562;19.540;2022-09-21T10:52:19;5.57;;;3.47;;
70150;SDS011;57517;43.562;19.540;2022-09-21T10:54:48;6.57;;;3.85;;
70150;SDS011;57517;43.562;19.540;2022-09-21T10:57:17;9.48;;;3.13;;
70150;SDS011;57517;43.562;19.540;2022-09-21T10:59:45;7.07;;;3.03;;
70150;SDS011;57517;43.562;19.540;2022-09-21T11:05:05;3.78;;;2.65;;
70150;SDS011;57517;43.562;19.540;2022-09-21T11:18:27;5.65;;;3.45;;
70150;SDS011;57517;43.562;19.540;2022-09-21T11:21:11;5.70;;;3.58;;
70150;SDS011;57517;43.562;19.540;2022-09-21T11:26:36;8.32;;;4.10;;
70150;SDS011;57517;43.562;19.540;2022-09-21T11:29:13;6.07;;;5.18;;
70150;SDS011;57517;43.562;19.540;2022-09-21T11:40:14;5.72;;;4.55;;
70150;SDS011;57517;43.562;19.540;2022-09-21T11:45:32;4.88;;;3.55;;
70150;SDS011;57517;43.562;19.540;2022-09-21T11:50:52;7.72;;;4.97;;
70150;SDS011;57517;43.562;19.540;2022-09-21T12:07:33;5.93;;;4.30;;
70150;SDS011;57517;43.562;19.540;2022-09-21T12:10:35;6.40;;;3.83;;
70150;SDS011;57517;43.562;19.540;2022-09-21T12:13:16;4.57;;;3.38;;
70150;SDS011;57517;43.562;19.540;2022-09-21T12:16:13;6.32;;;4.20;;
70150;SDS011;57517;43.562;19.540;2022-09-21T12:21:21;11.57;;;4.53;;
70150;SDS011;57517;43.562;19.540;2022-09-21T12:24:02;13.35;;;6.45;;
70150;SDS011;57517;43.562;19.540;2022-09-21T12:29:06;9.57;;;5.53;;
70150;SDS011;57517;43.562;19.540;2022-09-21T12:31:46;10.27;;;6.53;;
70150;SDS011;57517;43.562;19.540;2022-09-21T12:34:24;7.85;;;5.40;;
70150;SDS011;57517;43.562;19.540;2022-09-21T12:37:04;6.60;;;5.53;;
70150;SDS011;57517;43.562;19.540;2022-09-21T12:42:40;8.63;;;6.88;;
70150;SDS011;57517;43.562;19.540;2022-09-21T12:45:36;8.05;;;6.50;;
70150;SDS011;57517;43.562;19.540;2022-09-21T12:48:08;8.77;;;6.85;;
70150;SDS011;57517;43.562;19.540;2022-09-21T12:51:06;9.13;;;7.35;;
70150;SDS011;57517;43.562;19.540;2022-09-21T12:53:54;7.43;;;6.28;;
70150;SDS011;57517;43.562;19.540;2022-09-21T12:59:21;7.38;;;5.13;;
70150;SDS011;57517;43.562;19.540;2022-09-21T13:01:51;7.70;;;4.85;;
70150;SDS011;57517;43.562;19.540;2022-09-21T13:04:44;6.35;;;4.85;;
70150;SDS011;57517;43.562;19.540;2022-09-21T13:10:12;7.22;;;5.25;;
70150;SDS011;57517;43.562;19.540;2022-09-21T13:12:42;5.53;;;4.53;;
70150;SDS011;57517;43.562;19.540;2022-09-21T13:17:46;6.57;;;4.90;;
70150;SDS011;57517;43.562;19.540;2022-09-21T13:20:24;5.30;;;4.03;;
70150;SDS011;57517;43.562;19.540;2022-09-21T13:22:57;11.60;;;5.85;;
70150;SDS011;57517;43.562;19.540;2022-09-21T13:25:28;7.10;;;5.63;;
70150;SDS011;57517;43.562;19.540;2022-09-21T13:30:35;9.65;;;5.75;;
70150;SDS011;57517;43.562;19.540;2022-09-21T13:35:52;6.15;;;4.45;;
70150;SDS011;57517;43.562;19.540;2022-09-21T13:38:32;12.00;;;8.50;;
70150;SDS011;57517;43.562;19.540;2022-09-21T13:54:25;7.43;;;5.30;;
70150;SDS011;57517;43.562;19.540;2022-09-21T13:57:01;8.02;;;5.63;;
70150;SDS011;57517;43.562;19.540;2022-09-21T13:59:44;6.80;;;5.55;;
70150;SDS011;57517;43.562;19.540;2022-09-21T14:02:24;8.82;;;6.07;;
70150;SDS011;57517;43.562;19.540;2022-09-21T14:05:42;11.75;;;8.38;;
70150;SDS011;57517;43.562;19.540;2022-09-21T14:10:32;9.95;;;7.93;;
70150;SDS011;57517;43.562;19.540;2022-09-21T14:13:02;9.68;;;7.05;;
70150;SDS011;57517;43.562;19.540;2022-09-21T14:15:46;13.07;;;9.38;;
70150;SDS011;57517;43.562;19.540;2022-09-21T14:23:35;9.02;;;7.80;;
70150;SDS011;57517;43.562;19.540;2022-09-21T14:26:47;11.70;;;8.82;;
70150;SDS011;57517;43.562;19.540;2022-09-21T14:29:28;13.88;;;10.88;;
70150;SDS011;57517;43.562;19.540;2022-09-21T14:32:04;34.45;;;26.35;;
70150;SDS011;57517;43.562;19.540;2022-09-21T14:34:38;26.13;;;20.63;;
70150;SDS011;57517;43.562;19.540;2022-09-21T14:39:51;23.33;;;19.33;;
70150;SDS011;57517;43.562;19.540;2022-09-21T14:42:18;37.85;;;30.80;;
70150;SDS011;57517;43.562;19.540;2022-09-21T14:44:51;22.38;;;19.70;;
70150;SDS011;57517;43.562;19.540;2022-09-21T14:58:31;19.15;;;14.50;;
70150;SDS011;57517;43.562;19.540;2022-09-21T15:02:09;18.13;;;12.90;;
70150;SDS011;57517;43.562;19.540;2022-09-21T15:13:25;16.95;;;13.98;;
70150;SDS011;57517;43.562;19.540;2022-09-21T15:18:48;22.42;;;15.77;;
70150;SDS011;57517;43.562;19.540;2022-09-21T15:21:33;24.52;;;19.42;;
70150;SDS011;57517;43.562;19.540;2022-09-21T15:24:21;26.08;;;19.08;;
70150;SDS011;57517;43.562;19.540;2022-09-21T15:27:13;20.65;;;15.80;;
70150;SDS011;57517;43.562;19.540;2022-09-21T15:29:42;20.10;;;15.65;;
70150;SDS011;57517;43.562;19.540;2022-09-21T15:32:19;23.35;;;16.50;;
70150;SDS011;57517;43.562;19.540;2022-09-21T15:34:57;20.80;;;15.55;;
70150;SDS011;57517;43.562;19.540;2022-09-21T15:37:26;15.70;;;13.02;;
70150;SDS011;57517;43.562;19.540;2022-09-21T15:40:35;16.48;;;12.73;;
70150;SDS011;57517;43.562;19.540;2022-09-21T15:43:04;17.20;;;13.20;;
70150;SDS011;57517;43.562;19.540;2022-09-21T15:46:16;19.27;;;13.82;;
70150;SDS011;57517;43.562;19.540;2022-09-21T15:48:39;18.45;;;14.25;;
70150;SDS011;57517;43.562;19.540;2022-09-21T15:51:12;18.70;;;14.05;;
70150;SDS011;57517;43.562;19.540;2022-09-21T15:53:55;23.35;;;18.50;;
70150;SDS011;57517;43.562;19.540;2022-09-21T15:56:29;23.27;;;17.17;;
70150;SDS011;57517;43.562;19.540;2022-09-21T15:58:59;20.95;;;16.42;;
70150;SDS011;57517;43.562;19.540;2022-09-21T16:01:40;21.92;;;15.68;;
70150;SDS011;57517;43.562;19.540;2022-09-21T16:04:26;20.33;;;15.93;;
70150;SDS011;57517;43.562;19.540;2022-09-21T16:06:57;21.00;;;15.73;;
70150;SDS011;57517;43.562;19.540;2022-09-21T16:09:28;18.52;;;14.18;;
70150;SDS011;57517;43.562;19.540;2022-09-21T16:14:58;21.13;;;15.00;;
70150;SDS011;57517;43.562;19.540;2022-09-21T16:17:26;19.98;;;14.60;;
70150;SDS011;57517;43.562;19.540;2022-09-21T16:22:23;21.33;;;17.00;;
70150;SDS011;57517;43.562;19.540;2022-09-21T16:24:53;25.70;;;19.48;;
70150;SDS011;57517;43.562;19.540;2022-09-21T16:27:22;28.05;;;22.15;;
70150;SDS011;57517;43.562;19.540;2022-09-21T16:29:50;20.80;;;16.02;;
70150;SDS011;57517;43.562;19.540;2022-09-21T16:34:44;17.08;;;11.27;;
70150;SDS011;57517;43.562;19.540;2022-09-21T16:37:30;14.93;;;11.60;;
70150;SDS011;57517;43.562;19.540;2022-09-21T16:39:57;14.03;;;11.67;;
70150;SDS011;57517;43.562;19.540;2022-09-21T16:42:24;17.35;;;12.25;;
70150;SDS011;57517;43.562;19.540;2022-09-21T16:44:52;16.08;;;11.95;;
70150;SDS011;57517;43.562;19.540;2022-09-21T16:47:20;18.00;;;12.60;;
70150;SDS011;57517;43.562;19.540;2022-09-21T16:49:49;11.88;;;10.15;;
70150;SDS011;57517;43.562;19.540;2022-09-21T16:52:21;10.80;;;9.60;;
70150;SDS011;57517;43.562;19.540;2022-09-21T16:54:48;12.75;;;9.40;;
70150;SDS011;57517;43.562;19.540;2022-09-21T16:57:15;24.02;;;18.45;;
70150;SDS011;57517;43.562;19.540;2022-09-21T16:59:42;22.40;;;18.30;;
70150;SDS011;57517;43.562;19.540;2022-09-21T17:02:09;17.20;;;13.85;;
70150;SDS011;57517;43.562;19.540;2022-09-21T17:04:36;22.48;;;15.90;;
70150;SDS011;57517;43.562;19.540;2022-09-21T17:07:02;21.85;;;17.17;;
70150;SDS011;57517;43.562;19.540;2022-09-21T17:09:32;19.73;;;14.60;;
70150;SDS011;57517;43.562;19.540;2022-09-21T17:12:00;19.27;;;16.42;;
70150;SDS011;57517;43.562;19.540;2022-09-21T17:14:28;17.45;;;14.60;;
70150;SDS011;57517;43.562;19.540;2022-09-21T17:17:15;22.98;;;15.85;;
70150;SDS011;57517;43.562;19.540;2022-09-21T17:19:44;18.75;;;16.35;;
70150;SDS011;57517;43.562;19.540;2022-09-21T17:22:11;31.25;;;23.40;;
70150;SDS011;57517;43.562;19.540;2022-09-21T17:24:42;30.27;;;24.73;;
70150;SDS011;57517;43.562;19.540;2022-09-21T17:27:12;31.73;;;25.48;;
70150;SDS011;57517;43.562;19.540;2022-09-21T17:29:41;21.27;;;16.60;;
70150;SDS011;57517;43.562;19.540;2022-09-21T17:32:13;17.98;;;15.15;;
70150;SDS011;57517;43.562;19.540;2022-09-21T17:34:39;15.45;;;11.40;;
70150;SDS011;57517;43.562;19.540;2022-09-21T17:37:06;15.35;;;12.10;;
70150;SDS011;57517;43.562;19.540;2022-09-21T17:39:34;26.25;;;18.55;;
70150;SDS011;57517;43.562;19.540;2022-09-21T17:42:19;30.50;;;24.48;;
70150;SDS011;57517;43.562;19.540;2022-09-21T17:44:52;33.83;;;26.10;;
70150;SDS011;57517;43.562;19.540;2022-09-21T17:47:28;29.63;;;22.92;;
70150;SDS011;57517;43.562;19.540;2022-09-21T17:50:39;26.42;;;20.55;;
70150;SDS011;57517;43.562;19.540;2022-09-21T17:52:51;38.75;;;26.73;;
70150;SDS011;57517;43.562;19.540;2022-09-21T17:55:37;34.78;;;26.15;;
70150;SDS011;57517;43.562;19.540;2022-09-21T18:03:32;31.13;;;23.73;;
70150;SDS011;57517;43.562;19.540;2022-09-21T18:06:01;31.75;;;24.83;;
70150;SDS011;57517;43.562;19.540;2022-09-21T18:08:28;37.83;;;27.92;;
70150;SDS011;57517;43.562;19.540;2022-09-21T18:11:05;33.42;;;26.30;;
70150;SDS011;57517;43.562;19.540;2022-09-21T18:13:43;29.80;;;21.80;;
70150;SDS011;57517;43.562;19.540;2022-09-21T18:17:31;19.80;;;16.27;;
70150;SDS011;57517;43.562;19.540;2022-09-21T18:25:11;28.08;;;23.05;;
70150;SDS011;57517;43.562;19.540;2022-09-21T18:27:40;30.83;;;27.08;;
70150;SDS011;57517;43.562;19.540;2022-09-21T18:30:10;35.08;;;29.98;;